createdAt,value
2022-09-14T00:00:58.530Z,1003.9
2022-09-14T00:07:05.403Z,1003.9
2022-09-14T00:10:59.653Z,1003.9
2022-09-14T00:16:06.116Z,1004.0
2022-09-14T00:21:12.461Z,1003.9
2022-09-14T00:26:18.837Z,1003.9
2022-09-14T00:31:24.831Z,1003.9
2022-09-14T00:36:31.977Z,1003.8
2022-09-14T00:41:38.369Z,1003.8
2022-09-14T00:46:44.856Z,1003.7
2022-09-14T00:51:51.116Z,1003.6
2022-09-14T00:56:57.511Z,1003.5
2022-09-14T01:02:04.166Z,1003.5
2022-09-14T01:07:10.389Z,1003.4
2022-09-14T01:12:06.893Z,1003.4
2022-09-14T01:17:47.368Z,1003.4
2022-09-14T01:22:29.758Z,1003.3
2022-09-14T01:27:36.191Z,1003.3
2022-09-14T01:33:02.714Z,1003.2
2022-09-14T01:37:48.969Z,1003.2
2022-09-14T01:42:45.326Z,1003.1
2022-09-14T01:48:01.722Z,1003.1
2022-09-14T01:53:08.134Z,1003.3
2022-09-14T01:58:14.502Z,1003.1
2022-09-14T02:09:58.999Z,1003.1
2022-09-14T02:14:20.339Z,1003.0
2022-09-14T02:35:37.345Z,1003.2
2022-09-14T02:37:31.430Z,1003.0
2022-09-14T02:41:29.705Z,1003.0
2022-09-14T02:50:33.039Z,1002.6
2022-09-14T02:50:47.100Z,1002.8
2022-09-14T02:56:15.389Z,1002.6
2022-09-14T03:00:25.674Z,1002.8
2022-09-14T03:18:15.774Z,1002.7
2022-09-14T03:21:19.322Z,1002.7
2022-09-14T03:21:23.338Z,1002.7
2022-09-14T03:28:53.993Z,1002.7
2022-09-14T03:36:21.524Z,1002.7
2022-09-14T03:38:15.712Z,1002.6
2022-09-14T03:51:42.362Z,1002.4
2022-09-14T03:57:11.495Z,1002.3
2022-09-14T04:02:21.890Z,1002.3
2022-09-14T04:13:45.844Z,1002.2
2022-09-14T04:22:44.113Z,1002.3
2022-09-14T04:24:46.320Z,1002.2
2022-09-14T04:28:20.102Z,1002.2
2022-09-14T04:33:15.466Z,1002.2
2022-09-14T04:38:46.862Z,1002.2
2022-09-14T04:43:29.202Z,1002.2
2022-09-14T04:48:55.630Z,1002.1
2022-09-14T04:53:41.942Z,1002.1
2022-09-14T04:58:51.362Z,1002.1
2022-09-14T05:03:54.680Z,1002.0
2022-09-14T05:09:01.082Z,1002.0
2022-09-14T05:14:06.428Z,1002.0
2022-09-14T05:19:13.791Z,1002.0
2022-09-14T05:27:08.564Z,1001.9
2022-09-14T05:29:46.593Z,1002.0
2022-09-14T05:34:32.929Z,1001.9
2022-09-14T05:39:39.318Z,1001.9
2022-09-14T05:45:09.854Z,1001.9
2022-09-14T05:49:42.036Z,1001.9
2022-09-14T05:54:58.434Z,1001.9
2022-09-14T06:00:04.799Z,1001.8
2022-09-14T06:05:58.835Z,1001.7
2022-09-14T06:16:21.709Z,1001.8
2022-09-14T06:21:43.154Z,1001.7
2022-09-14T06:26:40.579Z,1001.9
2022-09-14T06:31:56.975Z,1002.0
2022-09-14T06:37:03.584Z,1001.9
2022-09-14T06:42:09.835Z,1001.8
2022-09-14T06:52:25.359Z,1001.8
2022-09-14T06:57:33.353Z,1001.9
2022-09-14T07:02:39.911Z,1001.9
2022-09-14T07:09:10.345Z,1002.0
2022-09-14T07:13:36.625Z,1001.8
2022-09-14T07:17:58.939Z,1001.9
2022-09-14T07:23:05.576Z,1002.0
2022-09-14T07:28:12.040Z,1001.9
2022-09-14T07:33:42.445Z,1002.0
2022-09-14T07:38:48.224Z,1002.0
2022-09-14T07:43:31.256Z,1002.0
2022-09-14T07:48:37.557Z,1002.0
2022-09-14T07:55:16.116Z,1002.0
2022-09-14T07:58:54.626Z,1001.9
2022-09-14T08:03:56.873Z,1001.8
2022-09-14T08:09:03.317Z,1001.8
2022-09-14T08:14:09.709Z,1001.8
2022-09-14T08:19:16.061Z,1001.8
2022-09-14T08:24:22.449Z,1001.8
2022-09-14T08:29:29.096Z,1001.8
2022-09-14T08:34:35.476Z,1001.8
2022-09-14T08:39:42.162Z,1001.8
2022-09-14T08:44:48.490Z,1001.7
2022-09-14T08:49:54.870Z,1001.7
2022-09-14T08:55:02.108Z,1001.7
2022-09-14T09:00:08.663Z,1001.6
2022-09-14T09:05:35.054Z,1001.6
2022-09-14T09:10:45.477Z,1001.5
2022-09-14T09:16:12.114Z,1001.6
2022-09-14T09:20:34.387Z,1001.5
2022-09-14T09:25:40.840Z,1001.5
2022-09-14T09:30:47.240Z,1001.6
2022-09-14T09:35:53.824Z,1001.5
2022-09-14T09:41:00.211Z,1001.4
2022-09-14T09:46:26.716Z,1001.5
2022-09-14T09:51:13.023Z,1001.4
2022-09-14T09:56:09.372Z,1001.6
2022-09-14T10:02:26.123Z,1001.6
2022-09-14T10:06:32.376Z,1001.5
2022-09-14T10:11:59.610Z,1001.5
2022-09-14T10:21:57.733Z,1001.5
2022-09-14T10:32:32.234Z,1001.4
2022-09-14T10:33:47.627Z,1001.3
2022-09-14T10:38:53.146Z,1001.5
2022-09-14T10:45:00.364Z,1001.4
2022-09-14T10:50:12.566Z,1001.2
2022-09-14T10:54:54.822Z,1001.3
2022-09-14T11:00:01.360Z,1001.3
2022-09-14T11:08:00.072Z,1001.2
2022-09-14T11:10:14.187Z,1001.1
2022-09-14T11:15:48.661Z,1001.1
2022-09-14T11:20:26.914Z,1001.1
2022-09-14T11:25:33.345Z,1001.1
2022-09-14T11:35:49.329Z,1001.1
2022-09-14T11:40:55.685Z,1001.0
2022-09-14T11:46:02.107Z,1001.0
2022-09-14T11:51:28.477Z,1001.1
2022-09-14T11:56:22.440Z,1001.0
2022-09-14T12:01:23.777Z,1001.0
2022-09-14T12:07:47.318Z,1001.0
2022-09-14T12:11:37.567Z,1001.0
2022-09-14T12:16:43.958Z,1001.1
2022-09-14T12:21:50.388Z,1001.0
2022-09-14T12:26:56.869Z,1001.0
2022-09-14T12:32:27.179Z,1000.9
2022-09-14T12:37:13.093Z,1000.9
2022-09-14T12:47:44.952Z,1000.8
2022-09-14T12:52:33.302Z,1000.7
2022-09-14T12:58:14.773Z,1000.8
2022-09-14T13:03:22.175Z,1000.6
2022-09-14T13:08:28.515Z,1000.5
2022-09-14T13:13:24.894Z,1000.5
2022-09-14T13:18:41.412Z,1000.4
2022-09-14T13:23:51.804Z,1000.4
2022-09-14T13:28:54.170Z,1000.3
2022-09-14T13:34:20.800Z,1000.4
2022-09-14T13:39:08.681Z,1000.3
2022-09-14T13:44:19.072Z,1000.3
2022-09-14T13:49:21.435Z,1000.3
2022-09-14T13:54:31.917Z,1000.2
2022-09-14T13:59:34.187Z,1000.2
2022-09-14T14:04:44.572Z,1000.2
2022-09-14T14:09:47.051Z,1000.1
2022-09-14T14:14:53.433Z,1000.1
2022-09-14T14:19:59.797Z,1000.1
2022-09-14T14:25:13.685Z,1000.0
2022-09-14T14:30:02.586Z,1000.0
2022-09-14T14:35:18.905Z,999.9
2022-09-14T14:40:25.608Z,1000.0
2022-09-14T14:45:35.971Z,999.9
2022-09-14T14:51:40.263Z,999.9
2022-09-14T14:55:44.565Z,999.8
2022-09-14T15:00:41.002Z,999.8
2022-09-14T15:05:57.306Z,999.7
2022-09-14T15:11:07.733Z,999.8
2022-09-14T15:27:18.861Z,999.5
2022-09-14T15:32:26.231Z,999.6
2022-09-14T15:37:32.606Z,999.5
2022-09-14T15:42:39.032Z,999.5
2022-09-14T15:47:36.564Z,999.4
2022-09-14T15:53:11.837Z,999.4
2022-09-14T15:57:48.183Z,999.5
2022-09-14T16:03:03.638Z,999.5
2022-09-14T16:08:11.025Z,999.5
2022-09-14T16:13:17.422Z,999.5
2022-09-14T16:18:23.779Z,999.6
2022-09-14T16:23:30.413Z,999.7
2022-09-14T16:28:36.816Z,999.7
2022-09-14T16:33:43.888Z,999.7
2022-09-14T16:39:14.165Z,999.7
2022-09-14T16:43:56.514Z,999.7
2022-09-14T16:49:06.887Z,999.6
2022-09-14T16:54:09.317Z,999.7
2022-09-14T16:59:15.746Z,999.6
2022-09-14T17:04:12.068Z,999.6
2022-09-14T17:09:34.051Z,999.6
2022-09-14T17:14:36.561Z,999.7
2022-09-14T17:20:02.934Z,999.6
2022-09-14T17:24:49.268Z,999.6
2022-09-14T17:30:03.381Z,999.7
2022-09-14T17:35:05.731Z,999.7
2022-09-14T17:40:12.147Z,999.8
2022-09-14T17:45:42.684Z,999.8
2022-09-14T17:50:25.075Z,999.8
2022-09-14T17:55:31.494Z,999.9
2022-09-14T18:00:37.957Z,1000.0
2022-09-14T18:05:44.306Z,1000.0
2022-09-14T18:10:50.844Z,1000.0
2022-09-14T18:15:57.263Z,1000.2
2022-09-14T18:21:07.726Z,1000.2
2022-09-14T18:26:34.047Z,1000.3
2022-09-14T18:31:16.433Z,1000.3
2022-09-14T18:36:22.885Z,1000.3
2022-09-14T18:41:29.241Z,1000.2
2022-09-14T18:46:55.830Z,1000.3
2022-09-14T18:51:32.053Z,1000.3
2022-09-14T18:57:08.469Z,1000.2
2022-09-14T19:01:54.857Z,1000.3
2022-09-14T19:07:01.223Z,1000.4
2022-09-14T19:12:07.575Z,1000.3
2022-09-14T19:17:13.935Z,1000.5
2022-09-14T19:22:54.437Z,1000.4
2022-09-14T19:28:01.810Z,1000.4
2022-09-14T19:32:58.270Z,1000.3
2022-09-14T19:38:04.669Z,1000.4
2022-09-14T19:43:21.046Z,1000.4
2022-09-14T19:48:17.403Z,1000.5
2022-09-14T19:53:33.914Z,1000.4
2022-09-14T19:59:00.288Z,1000.4
2022-09-14T20:03:46.712Z,1000.4
2022-09-14T20:09:31.272Z,1000.4
2022-09-14T20:14:52.611Z,1000.3
2022-09-14T20:19:44.969Z,1000.5
2022-09-14T20:24:51.395Z,1000.5
2022-09-14T20:30:17.761Z,1000.5
2022-09-14T20:35:04.119Z,1000.5
2022-09-14T20:40:10.682Z,1000.6
2022-09-14T20:45:16.968Z,1000.6
2022-09-14T20:50:13.332Z,1000.6
2022-09-14T20:56:29.873Z,1000.7
2022-09-14T21:00:36.136Z,1000.7
2022-09-14T21:05:32.640Z,1000.6
2022-09-14T21:12:02.753Z,1000.6
2022-09-14T21:15:57.018Z,1000.7
2022-09-14T21:21:03.393Z,1000.8
2022-09-14T21:26:29.810Z,1000.8
2022-09-14T21:31:16.413Z,1000.9
2022-09-14T21:36:22.780Z,1001.0
2022-09-14T21:41:29.287Z,1001.0
2022-09-14T21:46:35.770Z,1001.1
2022-09-14T21:51:42.098Z,1001.1
2022-09-14T21:56:48.459Z,1001.1
2022-09-14T22:01:54.965Z,1001.1
2022-09-14T22:07:01.268Z,1001.2
2022-09-14T22:11:57.641Z,1001.1
2022-09-14T22:17:04.140Z,1001.1
2022-09-14T22:22:20.525Z,1001.1
2022-09-14T22:27:26.938Z,1001.0
2022-09-14T22:32:33.317Z,1001.0
2022-09-14T22:37:39.726Z,1001.0
2022-09-14T22:42:46.108Z,1001.1
2022-09-14T22:47:52.665Z,1001.1
2022-09-14T22:52:59.041Z,1001.0
2022-09-14T22:58:05.392Z,1000.9
2022-09-14T23:03:11.827Z,1001.0
2022-09-14T23:08:18.196Z,1001.0
2022-09-14T23:13:14.558Z,1001.0
2022-09-14T23:18:30.989Z,1001.0
2022-09-14T23:23:37.325Z,1000.9
2022-09-14T23:28:43.712Z,1000.9
2022-09-14T23:33:50.158Z,1001.0
2022-09-14T23:38:56.507Z,1001.0
2022-09-14T23:44:02.909Z,1001.0
2022-09-14T23:48:59.410Z,1001.1
2022-09-14T23:54:15.786Z,1001.1
2022-09-14T23:59:22.183Z,1001.2
